createdAt,value
2023-02-06T00:01:06.515Z,103351.03
2023-02-06T00:03:35.761Z,103358.97
2023-02-06T00:06:03.709Z,103352.63
2023-02-06T00:08:31.522Z,103357.03
2023-02-06T00:10:59.395Z,103356.41
2023-02-06T00:13:27.382Z,103357.13
2023-02-06T00:15:55.283Z,103367.84
2023-02-06T00:18:23.149Z,103367.06
2023-02-06T00:20:52.424Z,103379.78
2023-02-06T00:23:20.319Z,103383.16
2023-02-06T00:25:48.153Z,103380.25
2023-02-06T00:28:16.040Z,103385.72
2023-02-06T00:30:47.465Z,103387.13
2023-02-06T00:33:15.419Z,103388.09
2023-02-06T00:35:43.338Z,103379.38
2023-02-06T00:38:12.846Z,103384.50
2023-02-06T00:40:40.684Z,103383.69
2023-02-06T00:43:08.516Z,103381.22
2023-02-06T00:45:36.679Z,103382.19
2023-02-06T00:48:04.984Z,103384.50
2023-02-06T00:50:32.821Z,103384.75
2023-02-06T00:53:00.706Z,103377.69
2023-02-06T00:55:29.948Z,103378.34
2023-02-06T00:57:57.805Z,103377.34
2023-02-06T01:00:25.740Z,103385.69
2023-02-06T01:02:53.617Z,103374.72
2023-02-06T01:05:24.446Z,103384.75
2023-02-06T01:07:52.476Z,103389.94
2023-02-06T01:10:20.607Z,103385.03
2023-02-06T01:12:49.812Z,103376.56
2023-02-06T01:15:17.701Z,103380.00
2023-02-06T01:17:45.594Z,103378.91
2023-02-06T01:20:14.732Z,103370.59
2023-02-06T01:22:42.863Z,103367.13
2023-02-06T01:25:12.976Z,103369.53
2023-02-06T01:27:40.827Z,103382.09
2023-02-06T01:30:12.066Z,103373.06
2023-02-06T01:32:40.528Z,103378.44
2023-02-06T01:35:09.677Z,103375.88
2023-02-06T01:37:38.561Z,103369.63
2023-02-06T01:40:10.323Z,103367.94
2023-02-06T01:42:38.638Z,103371.38
2023-02-06T01:45:43.449Z,103371.53
2023-02-06T01:48:16.196Z,103359.53
2023-02-06T01:50:47.726Z,103345.91
2023-02-06T01:53:16.499Z,103344.94
2023-02-06T01:55:46.356Z,103339.44
2023-02-06T01:58:18.914Z,103327.91
2023-02-06T02:00:47.207Z,103334.31
2023-02-06T02:03:16.686Z,103342.97
2023-02-06T02:05:44.771Z,103344.41
2023-02-06T02:08:16.182Z,103333.34
2023-02-06T02:10:44.413Z,103324.78
2023-02-06T02:13:12.324Z,103321.03
2023-02-06T02:15:43.441Z,103329.28
2023-02-06T02:18:26.866Z,103332.22
2023-02-06T02:21:24.466Z,103325.56
2023-02-06T02:23:56.407Z,103319.25
2023-02-06T02:26:58.648Z,103311.88
2023-02-06T02:29:38.334Z,103302.13
2023-02-06T02:32:34.135Z,103301.25
2023-02-06T02:35:11.928Z,103300.00
2023-02-06T02:37:50.100Z,103293.47
2023-02-06T02:40:25.266Z,103289.72
2023-02-06T02:43:02.961Z,103281.16
2023-02-06T02:45:38.106Z,103289.63
2023-02-06T02:48:08.025Z,103287.25
2023-02-06T02:50:37.826Z,103286.00
2023-02-06T02:53:06.651Z,103273.72
2023-02-06T02:55:35.072Z,103268.78
2023-02-06T02:58:07.871Z,103274.31
2023-02-06T03:00:38.395Z,103275.28
2023-02-06T03:03:08.148Z,103279.63
2023-02-06T03:05:41.849Z,103274.28
2023-02-06T03:08:17.244Z,103273.16
2023-02-06T03:10:49.538Z,103267.84
2023-02-06T03:13:21.919Z,103277.56
2023-02-06T03:15:56.070Z,103277.66
2023-02-06T03:18:26.687Z,103290.09
2023-02-06T03:20:56.097Z,103294.81
2023-02-06T03:23:26.222Z,103290.69
2023-02-06T03:25:56.220Z,103287.28
2023-02-06T03:28:27.692Z,103283.44
2023-02-06T03:30:57.550Z,103287.75
2023-02-06T03:33:32.196Z,103271.84
2023-02-06T03:36:01.543Z,103280.25
2023-02-06T03:38:29.448Z,103271.06
2023-02-06T03:40:59.260Z,103258.84
2023-02-06T03:43:28.679Z,103261.75
2023-02-06T03:46:00.162Z,103262.81
2023-02-06T03:48:31.439Z,103264.69
2023-02-06T03:51:02.514Z,103257.50
2023-02-06T03:53:31.187Z,103259.53
2023-02-06T03:56:02.850Z,103265.19
2023-02-06T03:58:30.914Z,103273.72
2023-02-06T04:00:59.042Z,103269.50
2023-02-06T04:03:28.023Z,103283.34
2023-02-06T04:05:55.868Z,103280.41
2023-02-06T04:08:25.145Z,103288.41
2023-02-06T04:10:53.000Z,103281.56
2023-02-06T04:13:20.934Z,103268.69
2023-02-06T04:15:48.897Z,103275.88
2023-02-06T04:18:16.754Z,103277.41
2023-02-06T04:20:44.597Z,103277.34
2023-02-06T04:23:12.490Z,103271.22
2023-02-06T04:25:41.749Z,103267.28
2023-02-06T04:28:09.860Z,103260.47
2023-02-06T04:30:37.806Z,103246.88
2023-02-06T04:33:06.272Z,103239.91
2023-02-06T04:35:34.401Z,103242.09
2023-02-06T04:38:02.485Z,103236.84
2023-02-06T04:40:30.304Z,103229.94
2023-02-06T04:42:59.550Z,103231.56
2023-02-06T04:45:27.472Z,103237.34
2023-02-06T04:47:55.333Z,103232.97
2023-02-06T04:50:23.259Z,103236.47
2023-02-06T04:52:51.269Z,103234.88
2023-02-06T04:55:19.176Z,103239.00
2023-02-06T04:57:47.024Z,103242.22
2023-02-06T05:00:17.512Z,103242.66
2023-02-06T05:02:45.451Z,103252.94
2023-02-06T05:05:13.447Z,103240.63
2023-02-06T05:07:41.259Z,103242.88
2023-02-06T05:10:09.967Z,103236.31
2023-02-06T05:12:37.869Z,103238.97
2023-02-06T05:15:06.164Z,103239.34
2023-02-06T05:17:35.444Z,103236.56
2023-02-06T05:20:03.687Z,103248.59
2023-02-06T05:22:31.589Z,103250.50
2023-02-06T05:24:59.547Z,103239.22
2023-02-06T05:27:27.478Z,103245.75
2023-02-06T05:29:56.795Z,103235.34
2023-02-06T05:32:24.623Z,103239.25
2023-02-06T05:34:53.813Z,103238.25
2023-02-06T05:37:21.653Z,103240.81
2023-02-06T05:39:49.529Z,103235.78
2023-02-06T05:42:17.383Z,103226.72
2023-02-06T05:44:46.905Z,103225.44
2023-02-06T05:47:14.771Z,103221.94
2023-02-06T05:49:44.016Z,103228.53
2023-02-06T05:52:13.354Z,103234.84
2023-02-06T05:54:41.219Z,103239.13
2023-02-06T05:57:09.103Z,103235.25
2023-02-06T05:59:37.005Z,103244.28
2023-02-06T06:02:05.183Z,103247.41
2023-02-06T06:04:33.100Z,103241.00
2023-02-06T06:07:01.090Z,103240.28
2023-02-06T06:09:30.345Z,103252.94
2023-02-06T06:11:58.192Z,103261.75
2023-02-06T06:14:26.233Z,103264.56
2023-02-06T06:16:54.086Z,103274.19
2023-02-06T06:19:21.989Z,103280.25
2023-02-06T06:21:49.906Z,103275.56
2023-02-06T06:24:17.878Z,103272.69
2023-02-06T06:26:47.141Z,103275.44
2023-02-06T06:29:17.619Z,103270.97
2023-02-06T06:31:45.768Z,103271.03
2023-02-06T06:34:13.668Z,103268.84
2023-02-06T06:36:41.503Z,103267.75
2023-02-06T06:39:09.507Z,103270.66
2023-02-06T06:41:37.376Z,103260.97
2023-02-06T06:44:06.752Z,103263.66
2023-02-06T06:46:34.660Z,103267.25
2023-02-06T06:49:02.586Z,103266.28
2023-02-06T06:51:30.534Z,103260.56
2023-02-06T06:53:58.851Z,103261.75
2023-02-06T06:56:26.992Z,103258.66
2023-02-06T06:58:55.510Z,103257.66
2023-02-06T07:01:24.892Z,103252.34
2023-02-06T07:03:52.891Z,103254.84
2023-02-06T07:06:20.782Z,103251.03
2023-02-06T07:08:48.718Z,103244.97
2023-02-06T07:11:16.963Z,103248.94
2023-02-06T07:13:44.943Z,103246.28
2023-02-06T07:16:13.437Z,103241.56
2023-02-06T07:18:43.071Z,103248.41
2023-02-06T07:21:11.076Z,103244.94
2023-02-06T07:23:39.071Z,103242.81
2023-02-06T07:26:06.989Z,103247.78
2023-02-06T07:28:35.204Z,103250.69
2023-02-06T07:31:03.736Z,103256.66
2023-02-06T07:33:31.669Z,103266.00
2023-02-06T07:36:03.828Z,103264.25
2023-02-06T07:38:32.118Z,103261.56
2023-02-06T07:41:02.365Z,103256.28
2023-02-06T07:43:30.690Z,103254.78
2023-02-06T07:46:00.235Z,103259.31
2023-02-06T07:48:28.386Z,103261.38
2023-02-06T07:50:56.302Z,103265.28
2023-02-06T07:53:25.552Z,103258.09
2023-02-06T07:55:53.378Z,103256.03
2023-02-06T07:58:21.287Z,103247.38
2023-02-06T08:00:49.204Z,103243.94
2023-02-06T08:03:17.031Z,103246.97
2023-02-06T08:05:44.932Z,103242.28
2023-02-06T08:08:12.761Z,103233.53
2023-02-06T08:10:42.046Z,103243.97
2023-02-06T08:13:09.917Z,103245.97
2023-02-06T08:15:38.067Z,103248.78
2023-02-06T08:18:06.217Z,103259.31
2023-02-06T08:20:34.338Z,103263.34
2023-02-06T08:23:02.242Z,103257.06
2023-02-06T08:25:30.169Z,103257.34
2023-02-06T08:27:59.430Z,103256.88
2023-02-06T08:30:27.380Z,103263.75
2023-02-06T08:32:55.336Z,103254.69
2023-02-06T08:35:23.171Z,103254.91
2023-02-06T08:37:51.004Z,103245.59
2023-02-06T08:40:21.170Z,103251.34
2023-02-06T08:42:51.403Z,103246.97
2023-02-06T08:45:20.631Z,103239.50
2023-02-06T08:47:48.542Z,103246.91
2023-02-06T08:50:17.088Z,103240.28
2023-02-06T08:52:44.985Z,103251.34
2023-02-06T08:55:12.871Z,103256.31
2023-02-06T08:57:40.752Z,103249.00
2023-02-06T09:00:10.127Z,103244.91
2023-02-06T09:02:39.346Z,103234.22
2023-02-06T09:05:07.457Z,103244.59
2023-02-06T09:07:35.291Z,103244.78
2023-02-06T09:10:03.192Z,103241.81
2023-02-06T09:12:31.135Z,103240.22
2023-02-06T09:14:59.026Z,103245.72
2023-02-06T09:17:27.264Z,103258.69
2023-02-06T09:19:56.569Z,103259.09
2023-02-06T09:22:24.506Z,103253.03
2023-02-06T09:24:52.439Z,103263.09
2023-02-06T09:27:20.391Z,103273.25
2023-02-06T09:29:48.945Z,103272.13
2023-02-06T09:32:16.860Z,103278.72
2023-02-06T09:34:44.740Z,103282.72
2023-02-06T09:37:13.940Z,103292.84
2023-02-06T09:39:41.996Z,103297.41
2023-02-06T09:42:14.087Z,103291.78
2023-02-06T09:44:44.349Z,103294.88
2023-02-06T09:47:19.657Z,103289.03
2023-02-06T09:49:49.461Z,103298.50
2023-02-06T09:52:31.387Z,103298.19
2023-02-06T09:55:04.891Z,103283.59
2023-02-06T09:57:40.535Z,103299.13
2023-02-06T10:00:17.639Z,103287.81
2023-02-06T10:03:09.166Z,103284.16
2023-02-06T10:05:46.978Z,103286.41
2023-02-06T10:08:21.980Z,103284.28
2023-02-06T10:10:52.118Z,103287.94
2023-02-06T10:13:23.853Z,103301.72
2023-02-06T10:15:54.029Z,103305.63
2023-02-06T10:18:27.266Z,103298.19
2023-02-06T10:20:58.942Z,103305.53
2023-02-06T10:23:32.369Z,103316.00
2023-02-06T10:26:17.174Z,103308.91
2023-02-06T10:28:46.211Z,103318.53
2023-02-06T10:31:47.568Z,103300.47
2023-02-06T10:34:26.824Z,103294.97
2023-02-06T10:37:06.303Z,103299.41
2023-02-06T10:39:46.639Z,103314.88
2023-02-06T10:42:21.145Z,103304.31
2023-02-06T10:44:53.867Z,103292.59
2023-02-06T10:47:29.753Z,103293.78
2023-02-06T10:50:01.763Z,103276.16
2023-02-06T10:52:32.129Z,103280.78
2023-02-06T10:55:05.085Z,103282.38
2023-02-06T10:57:33.520Z,103295.28
2023-02-06T11:00:02.871Z,103295.22
2023-02-06T11:02:40.025Z,103301.47
2023-02-06T11:05:10.465Z,103311.00
2023-02-06T11:07:41.114Z,103298.09
2023-02-06T11:10:14.123Z,103294.91
2023-02-06T11:12:43.912Z,103312.84
2023-02-06T11:15:21.608Z,103307.41
2023-02-06T11:17:50.310Z,103317.69
2023-02-06T11:20:22.132Z,103301.13
2023-02-06T11:22:53.396Z,103302.38
2023-02-06T11:25:33.616Z,103302.25
2023-02-06T11:28:02.113Z,103309.00
2023-02-06T11:30:33.522Z,103299.53
2023-02-06T11:33:05.769Z,103309.66
2023-02-06T11:35:38.934Z,103300.06
2023-02-06T11:38:13.805Z,103309.03
2023-02-06T11:40:43.862Z,103313.97
2023-02-06T11:43:20.859Z,103317.75
2023-02-06T11:45:52.260Z,103319.47
2023-02-06T11:48:36.161Z,103327.06
2023-02-06T11:51:04.770Z,103325.28
2023-02-06T11:53:32.890Z,103313.41
2023-02-06T11:56:05.058Z,103307.03
2023-02-06T11:58:34.968Z,103318.41
2023-02-06T12:01:05.845Z,103320.25
2023-02-06T12:03:36.986Z,103308.06
2023-02-06T12:06:09.856Z,103319.41
2023-02-06T12:08:45.449Z,103311.75
2023-02-06T12:11:19.122Z,103311.91
2023-02-06T12:13:50.348Z,103318.38
2023-02-06T12:16:18.997Z,103315.81
2023-02-06T12:18:50.148Z,103315.78
2023-02-06T12:21:24.435Z,103315.91
2023-02-06T12:23:54.695Z,103320.78
2023-02-06T12:26:26.332Z,103326.66
2023-02-06T12:28:59.510Z,103326.88
2023-02-06T12:31:33.278Z,103331.34
2023-02-06T12:34:10.911Z,103330.00
2023-02-06T12:36:50.895Z,103328.72
2023-02-06T12:39:21.084Z,103326.16
2023-02-06T12:42:02.188Z,103335.56
2023-02-06T12:44:33.189Z,103336.09
2023-02-06T12:47:04.812Z,103336.09
2023-02-06T12:49:37.024Z,103341.09
2023-02-06T12:52:10.404Z,103343.06
2023-02-06T12:54:43.306Z,103347.09
2023-02-06T12:57:16.304Z,103343.88
2023-02-06T13:00:09.576Z,103335.56
2023-02-06T13:03:02.461Z,103339.03
2023-02-06T13:05:34.659Z,103337.41
2023-02-06T13:08:06.933Z,103340.66
2023-02-06T13:10:35.172Z,103337.19
2023-02-06T13:13:05.104Z,103335.03
2023-02-06T13:15:37.420Z,103342.75
2023-02-06T13:18:36.371Z,103348.25
2023-02-06T13:21:20.576Z,103345.13
2023-02-06T13:24:15.599Z,103349.66
2023-02-06T13:27:20.390Z,103352.00
2023-02-06T13:29:51.546Z,103360.28
2023-02-06T13:32:47.824Z,103367.38
2023-02-06T13:35:29.087Z,103354.31
2023-02-06T13:38:28.472Z,103352.56
2023-02-06T13:41:18.958Z,103366.22
2023-02-06T13:43:50.707Z,103368.66
2023-02-06T13:46:21.895Z,103374.78
2023-02-06T13:49:06.365Z,103367.75
2023-02-06T13:51:50.302Z,103373.13
2023-02-06T13:54:39.607Z,103371.00
2023-02-06T13:57:32.788Z,103380.78
2023-02-06T14:00:02.533Z,103376.53
2023-02-06T14:02:40.040Z,103376.59
2023-02-06T14:05:12.622Z,103385.97
2023-02-06T14:08:01.082Z,103385.69
2023-02-06T14:11:19.155Z,103387.84
2023-02-06T14:14:01.894Z,103377.94
2023-02-06T14:16:38.441Z,103391.19
2023-02-06T14:19:13.967Z,103392.81
2023-02-06T14:21:54.995Z,103395.56
2023-02-06T14:24:44.874Z,103399.00
2023-02-06T14:27:29.400Z,103401.41
2023-02-06T14:30:06.008Z,103406.41
2023-02-06T14:32:42.354Z,103418.44
2023-02-06T14:35:29.358Z,103410.63
2023-02-06T14:38:07.775Z,103417.47
2023-02-06T14:40:41.481Z,103412.69
2023-02-06T14:43:16.310Z,103417.19
2023-02-06T14:45:49.675Z,103417.91
2023-02-06T14:48:27.600Z,103431.78
2023-02-06T14:50:57.863Z,103425.63
2023-02-06T14:53:27.643Z,103437.34
2023-02-06T14:56:07.611Z,103430.84
2023-02-06T14:58:36.102Z,103432.81
2023-02-06T15:01:20.450Z,103435.31
2023-02-06T15:03:49.982Z,103443.19
2023-02-06T15:06:34.405Z,103444.09
2023-02-06T15:09:02.746Z,103438.81
2023-02-06T15:11:32.636Z,103444.84
2023-02-06T15:14:03.301Z,103444.84
2023-02-06T15:16:33.058Z,103436.19
2023-02-06T15:19:12.203Z,103445.81
2023-02-06T15:21:44.125Z,103451.97
2023-02-06T15:24:24.493Z,103465.03
2023-02-06T15:26:56.074Z,103459.81
2023-02-06T15:29:26.778Z,103465.03
2023-02-06T15:31:56.272Z,103466.78
2023-02-06T15:34:25.659Z,103467.53
2023-02-06T15:36:55.081Z,103485.50
2023-02-06T15:39:23.123Z,103485.13
2023-02-06T15:41:53.590Z,103487.41
2023-02-06T15:44:27.021Z,103490.59
2023-02-06T15:46:56.033Z,103483.09
2023-02-06T15:49:35.902Z,103493.25
2023-02-06T15:52:06.341Z,103490.91
2023-02-06T15:54:34.464Z,103493.91
2023-02-06T15:57:05.626Z,103497.25
2023-02-06T15:59:36.078Z,103496.50
2023-02-06T16:02:05.019Z,103503.44
2023-02-06T16:04:35.091Z,103510.38
2023-02-06T16:07:07.368Z,103509.22
2023-02-06T16:09:41.136Z,103515.28
2023-02-06T16:12:09.625Z,103523.25
2023-02-06T16:14:39.366Z,103521.78
2023-02-06T16:17:23.958Z,103518.94
2023-02-06T16:19:54.720Z,103517.13
2023-02-06T16:22:29.174Z,103517.78
2023-02-06T16:25:14.544Z,103514.34
2023-02-06T16:27:45.720Z,103520.72
2023-02-06T16:30:23.532Z,103521.47
2023-02-06T16:32:53.551Z,103522.91
2023-02-06T16:35:22.795Z,103521.75
2023-02-06T16:37:53.507Z,103533.44
2023-02-06T16:40:21.615Z,103522.59
2023-02-06T16:42:49.520Z,103533.41
2023-02-06T16:45:19.738Z,103538.66
2023-02-06T16:47:47.745Z,103551.75
2023-02-06T16:50:16.113Z,103550.66
2023-02-06T16:52:51.261Z,103553.31
2023-02-06T16:55:23.427Z,103546.53
2023-02-06T16:57:54.185Z,103556.75
2023-02-06T17:00:25.522Z,103557.69
2023-02-06T17:02:54.211Z,103559.72
2023-02-06T17:05:23.651Z,103560.56
2023-02-06T17:07:51.742Z,103558.84
2023-02-06T17:10:23.460Z,103567.44
2023-02-06T17:12:54.626Z,103566.91
2023-02-06T17:15:22.622Z,103570.59
2023-02-06T17:17:50.513Z,103566.81
2023-02-06T17:20:25.894Z,103575.56
2023-02-06T17:22:53.786Z,103582.19
2023-02-06T17:25:23.001Z,103578.69
2023-02-06T17:27:50.906Z,103578.78
2023-02-06T17:30:20.713Z,103583.63
2023-02-06T17:32:48.680Z,103579.91
2023-02-06T17:35:17.112Z,103578.63
2023-02-06T17:37:45.012Z,103571.72
2023-02-06T17:40:18.839Z,103591.47
2023-02-06T17:42:48.747Z,103589.31
2023-02-06T17:45:16.863Z,103579.06
2023-02-06T17:47:45.065Z,103582.94
2023-02-06T17:50:15.477Z,103584.91
2023-02-06T17:52:43.397Z,103583.34
2023-02-06T17:55:11.513Z,103588.31
2023-02-06T17:57:39.849Z,103582.53
2023-02-06T18:00:14.165Z,103587.66
2023-02-06T18:02:42.100Z,103591.25
2023-02-06T18:05:10.399Z,103584.78
2023-02-06T18:07:38.682Z,103585.22
2023-02-06T18:10:07.604Z,103585.13
2023-02-06T18:12:35.825Z,103589.19
2023-02-06T18:15:03.878Z,103588.69
2023-02-06T18:17:33.218Z,103589.91
2023-02-06T18:20:01.397Z,103586.94
2023-02-06T18:22:29.413Z,103586.94
2023-02-06T18:24:57.444Z,103584.16
2023-02-06T18:27:25.304Z,103590.63
2023-02-06T18:29:55.146Z,103585.34
2023-02-06T18:32:23.199Z,103584.44
2023-02-06T18:34:52.411Z,103580.84
2023-02-06T18:37:20.345Z,103575.78
2023-02-06T18:39:48.260Z,103581.00
2023-02-06T18:42:33.269Z,103575.53
2023-02-06T18:45:03.249Z,103566.09
2023-02-06T18:47:31.989Z,103569.16
2023-02-06T18:50:01.242Z,103578.59
2023-02-06T18:52:29.168Z,103582.47
2023-02-06T18:54:57.026Z,103582.66
2023-02-06T18:57:24.841Z,103577.69
2023-02-06T18:59:52.780Z,103577.84
2023-02-06T19:02:20.669Z,103575.88
2023-02-06T19:04:48.639Z,103591.19
2023-02-06T19:07:18.392Z,103592.78
2023-02-06T19:09:46.338Z,103600.88
2023-02-06T19:12:14.289Z,103606.63
2023-02-06T19:14:42.236Z,103594.72
2023-02-06T19:17:10.065Z,103598.19
2023-02-06T19:19:37.960Z,103591.56
2023-02-06T19:22:05.926Z,103591.47
2023-02-06T19:24:35.200Z,103592.97
2023-02-06T19:27:03.097Z,103600.66
2023-02-06T19:29:36.002Z,103607.50
2023-02-06T19:32:05.155Z,103612.69
2023-02-06T19:34:35.982Z,103604.94
2023-02-06T19:37:04.202Z,103609.41
2023-02-06T19:39:34.157Z,103611.22
2023-02-06T19:42:06.420Z,103607.38
2023-02-06T19:44:34.684Z,103610.00
2023-02-06T19:47:03.105Z,103619.97
2023-02-06T19:49:31.617Z,103636.06
2023-02-06T19:51:59.564Z,103621.84
2023-02-06T19:54:27.608Z,103631.28
2023-02-06T19:56:55.614Z,103631.56
2023-02-06T19:59:28.348Z,103643.06
2023-02-06T20:01:58.337Z,103646.84
2023-02-06T20:04:30.195Z,103632.53
2023-02-06T20:06:58.151Z,103629.41
2023-02-06T20:09:27.015Z,103623.59
2023-02-06T20:11:55.344Z,103631.38
2023-02-06T20:14:25.423Z,103635.63
2023-02-06T20:16:53.433Z,103638.91
2023-02-06T20:19:24.269Z,103642.69
2023-02-06T20:21:53.741Z,103650.75
2023-02-06T20:24:23.928Z,103646.41
2023-02-06T20:26:55.770Z,103646.84
2023-02-06T20:29:27.616Z,103643.59
2023-02-06T20:31:56.546Z,103635.31
2023-02-06T20:34:24.935Z,103645.59
2023-02-06T20:36:53.313Z,103651.09
2023-02-06T20:39:21.385Z,103648.16
2023-02-06T20:41:50.915Z,103640.69
2023-02-06T20:44:20.014Z,103632.63
2023-02-06T20:46:49.956Z,103632.84
2023-02-06T20:49:19.637Z,103640.25
2023-02-06T20:51:48.990Z,103645.72
2023-02-06T20:54:17.113Z,103646.91
2023-02-06T20:56:45.157Z,103651.88
2023-02-06T20:59:14.274Z,103647.56
2023-02-06T21:01:42.692Z,103639.75
2023-02-06T21:04:13.536Z,103646.22
2023-02-06T21:06:41.681Z,103655.84
2023-02-06T21:09:10.175Z,103652.22
2023-02-06T21:11:40.394Z,103649.66
2023-02-06T21:14:08.717Z,103652.22
2023-02-06T21:16:38.711Z,103648.66
2023-02-06T21:19:07.799Z,103653.47
2023-02-06T21:21:37.495Z,103656.81
2023-02-06T21:24:06.265Z,103667.13
2023-02-06T21:26:34.485Z,103669.38
2023-02-06T21:29:03.391Z,103659.28
2023-02-06T21:31:36.933Z,103671.06
2023-02-06T21:34:08.986Z,103674.81
2023-02-06T21:36:39.548Z,103671.94
2023-02-06T21:39:07.847Z,103677.41
2023-02-06T21:41:36.043Z,103677.91
2023-02-06T21:44:04.460Z,103670.75
2023-02-06T21:46:33.324Z,103674.81
2023-02-06T21:49:01.204Z,103666.97
2023-02-06T21:51:29.225Z,103653.88
2023-02-06T21:53:58.830Z,103651.06
2023-02-06T21:56:28.170Z,103646.53
2023-02-06T21:58:56.245Z,103650.25
2023-02-06T22:01:27.090Z,103647.03
2023-02-06T22:03:54.824Z,103645.22
2023-02-06T22:06:22.495Z,103654.81
2023-02-06T22:08:51.725Z,103652.50
2023-02-06T22:11:21.231Z,103656.22
2023-02-06T22:13:49.036Z,103659.88
2023-02-06T22:16:17.209Z,103652.34
2023-02-06T22:18:44.883Z,103653.44
2023-02-06T22:21:13.926Z,103657.66
2023-02-06T22:23:41.812Z,103662.00
2023-02-06T22:26:10.203Z,103673.81
2023-02-06T22:28:39.206Z,103679.13
2023-02-06T22:31:07.440Z,103669.41
2023-02-06T22:33:35.269Z,103673.31
2023-02-06T22:36:04.463Z,103672.88
2023-02-06T22:38:32.107Z,103670.44
2023-02-06T22:41:00.810Z,103679.91
2023-02-06T22:43:28.814Z,103678.22
2023-02-06T22:45:57.818Z,103676.38
2023-02-06T22:48:25.647Z,103669.19
2023-02-06T22:50:53.598Z,103662.31
2023-02-06T22:53:36.383Z,103664.97
2023-02-06T22:56:22.951Z,103667.53
2023-02-06T22:58:50.946Z,103669.41
2023-02-06T23:01:20.371Z,103672.31
2023-02-06T23:03:48.174Z,103681.38
2023-02-06T23:06:16.064Z,103683.63
2023-02-06T23:08:44.033Z,103688.38
2023-02-06T23:11:11.799Z,103695.81
2023-02-06T23:13:39.629Z,103690.41
2023-02-06T23:16:07.679Z,103689.66
2023-02-06T23:18:36.865Z,103683.75
2023-02-06T23:21:06.008Z,103690.34
2023-02-06T23:23:33.721Z,103683.56
2023-02-06T23:26:01.428Z,103696.91
2023-02-06T23:28:29.126Z,103692.50
2023-02-06T23:30:56.817Z,103692.31
2023-02-06T23:33:24.576Z,103690.41
2023-02-06T23:35:53.623Z,103698.28
2023-02-06T23:38:21.326Z,103699.47
2023-02-06T23:40:49.191Z,103705.53
2023-02-06T23:43:17.072Z,103707.31
2023-02-06T23:45:45.077Z,103698.38
2023-02-06T23:48:12.935Z,103702.81
2023-02-06T23:50:40.850Z,103709.28
2023-02-06T23:53:12.757Z,103709.75
2023-02-06T23:55:41.074Z,103707.19
2023-02-06T23:58:08.983Z,103709.72
